createdAt,value
2022-08-26T00:01:56.244Z,20.57
2022-08-26T00:04:24.606Z,20.56
2022-08-26T00:06:54.485Z,20.54
2022-08-26T00:09:22.905Z,20.49
2022-08-26T00:11:55.553Z,20.45
2022-08-26T00:14:31.033Z,20.43
2022-08-26T00:16:59.066Z,20.42
2022-08-26T00:19:29.552Z,20.42
2022-08-26T00:22:00.017Z,20.42
2022-08-26T00:24:28.263Z,20.40
2022-08-26T00:26:55.561Z,20.41
2022-08-26T00:29:22.736Z,20.45
2022-08-26T00:31:50.719Z,20.47
2022-08-26T00:34:19.639Z,20.51
2022-08-26T00:36:47.698Z,20.58
2022-08-26T00:39:16.233Z,20.66
2022-08-26T00:41:44.388Z,20.75
2022-08-26T00:44:11.668Z,20.82
2022-08-26T00:46:58.947Z,20.88
2022-08-26T00:49:42.496Z,20.95
2022-08-26T00:52:18.037Z,21.00
2022-08-26T00:54:53.163Z,21.04
2022-08-26T00:57:22.666Z,21.07
2022-08-26T01:00:02.239Z,21.07
2022-08-26T01:02:29.627Z,21.02
2022-08-26T01:05:03.440Z,21.00
2022-08-26T01:07:32.694Z,20.97
2022-08-26T01:10:08.988Z,20.95
2022-08-26T01:12:42.166Z,20.92
2022-08-26T01:15:15.028Z,20.89
2022-08-26T01:17:42.496Z,20.83
2022-08-26T01:20:37.617Z,20.77
2022-08-26T01:23:10.556Z,20.70
2022-08-26T01:25:40.899Z,20.67
2022-08-26T01:28:18.955Z,20.66
2022-08-26T01:30:47.723Z,20.65
2022-08-26T01:33:46.942Z,20.64
2022-08-26T01:36:29.055Z,20.60
2022-08-26T01:38:57.149Z,20.59
2022-08-26T01:41:36.292Z,20.57
2022-08-26T01:44:09.787Z,20.56
2022-08-26T01:46:40.621Z,20.55
2022-08-26T01:49:12.454Z,20.53
2022-08-26T01:51:43.254Z,20.50
2022-08-26T01:54:13.735Z,20.47
2022-08-26T01:56:41.370Z,20.44
2022-08-26T01:59:12.258Z,20.43
2022-08-26T02:01:39.588Z,20.39
2022-08-26T02:04:20.408Z,20.36
2022-08-26T02:06:48.950Z,20.32
2022-08-26T02:09:18.392Z,20.28
2022-08-26T02:11:51.151Z,20.27
2022-08-26T02:14:28.975Z,20.23
2022-08-26T02:17:12.517Z,20.21
2022-08-26T02:19:44.717Z,20.19
2022-08-26T02:22:20.824Z,20.19
2022-08-26T02:24:52.285Z,20.17
2022-08-26T02:27:23.829Z,20.14
2022-08-26T02:30:19.313Z,20.10
2022-08-26T02:32:49.582Z,20.06
2022-08-26T02:35:20.356Z,20.05
2022-08-26T02:37:49.352Z,20.05
2022-08-26T02:40:23.346Z,20.06
2022-08-26T02:42:53.089Z,20.05
2022-08-26T02:45:25.955Z,20.05
2022-08-26T02:47:53.291Z,20.06
2022-08-26T02:50:26.506Z,20.06
2022-08-26T02:53:01.497Z,20.06
2022-08-26T02:55:31.973Z,20.07
2022-08-26T02:58:00.800Z,20.09
2022-08-26T03:00:28.993Z,20.10
2022-08-26T03:02:57.730Z,20.12
2022-08-26T03:05:25.400Z,20.13
2022-08-26T03:07:52.438Z,20.14
2022-08-26T03:10:20.934Z,20.13
2022-08-26T03:12:48.165Z,20.14
2022-08-26T03:15:18.103Z,20.15
2022-08-26T03:17:47.674Z,20.14
2022-08-26T03:20:17.442Z,20.15
2022-08-26T03:22:44.858Z,20.15
2022-08-26T03:25:16.042Z,20.16
2022-08-26T03:27:43.245Z,20.14
2022-08-26T03:30:32.610Z,20.14
2022-08-26T03:33:01.679Z,20.14
2022-08-26T03:35:31.222Z,20.16
2022-08-26T03:37:59.791Z,20.17
2022-08-26T03:40:30.772Z,20.18
2022-08-26T03:42:58.041Z,20.18
2022-08-26T03:45:27.208Z,20.18
2022-08-26T03:48:02.830Z,20.18
2022-08-26T03:50:34.271Z,20.17
2022-08-26T03:53:12.903Z,20.16
2022-08-26T03:55:41.829Z,20.14
2022-08-26T03:58:10.442Z,20.12
2022-08-26T04:00:38.893Z,20.09
2022-08-26T04:03:06.591Z,20.08
2022-08-26T04:05:37.751Z,20.06
2022-08-26T04:08:08.312Z,20.04
2022-08-26T04:10:37.890Z,20.02
2022-08-26T04:13:05.382Z,19.99
2022-08-26T04:15:32.229Z,19.94
2022-08-26T04:18:00.789Z,19.89
2022-08-26T04:20:27.959Z,19.84
2022-08-26T04:22:55.054Z,19.80
2022-08-26T04:25:25.655Z,19.77
2022-08-26T04:27:54.489Z,19.72
2022-08-26T04:30:21.505Z,19.71
2022-08-26T04:32:49.365Z,19.69
2022-08-26T04:35:17.282Z,19.67
2022-08-26T04:37:44.363Z,19.65
2022-08-26T04:40:11.686Z,19.64
2022-08-26T04:42:38.705Z,19.63
2022-08-26T04:45:09.978Z,19.63
2022-08-26T04:47:38.347Z,19.62
2022-08-26T04:50:06.668Z,19.63
2022-08-26T04:52:36.200Z,19.62
2022-08-26T04:55:06.505Z,19.62
2022-08-26T04:57:33.720Z,19.61
2022-08-26T05:00:01.507Z,19.62
2022-08-26T05:02:36.049Z,19.63
2022-08-26T05:05:06.687Z,19.64
2022-08-26T05:07:34.770Z,19.64
2022-08-26T05:10:04.031Z,19.64
2022-08-26T05:12:35.899Z,19.65
2022-08-26T05:15:09.823Z,19.67
2022-08-26T05:17:37.701Z,19.68
2022-08-26T05:20:06.232Z,19.71
2022-08-26T05:22:34.567Z,19.75
2022-08-26T05:25:01.813Z,19.76
2022-08-26T05:27:30.399Z,19.77
2022-08-26T05:29:57.592Z,19.77
2022-08-26T05:32:25.067Z,19.75
2022-08-26T05:34:58.589Z,19.75
2022-08-26T05:37:26.003Z,19.74
2022-08-26T05:39:53.052Z,19.78
2022-08-26T05:42:20.046Z,19.82
2022-08-26T05:44:56.366Z,19.84
2022-08-26T05:47:24.015Z,19.85
2022-08-26T05:49:51.269Z,19.86
2022-08-26T05:52:19.831Z,19.84
2022-08-26T05:54:47.168Z,19.84
2022-08-26T05:57:15.371Z,19.86
2022-08-26T05:59:42.209Z,19.90
2022-08-26T06:03:20.711Z,19.89
2022-08-26T06:06:35.489Z,19.94
2022-08-26T06:09:21.022Z,19.95
2022-08-26T06:11:58.971Z,19.97
2022-08-26T06:14:30.258Z,19.97
2022-08-26T06:16:58.644Z,20.02
2022-08-26T06:19:26.048Z,20.05
2022-08-26T06:22:23.908Z,20.10
2022-08-26T06:25:10.317Z,20.17
2022-08-26T06:27:38.482Z,20.22
2022-08-26T06:30:06.815Z,20.26
2022-08-26T06:32:57.783Z,20.36
2022-08-26T06:35:26.789Z,20.36
2022-08-26T06:37:53.789Z,20.38
2022-08-26T06:40:23.203Z,20.46
2022-08-26T06:42:55.580Z,20.49
2022-08-26T06:45:23.662Z,20.56
2022-08-26T06:47:52.191Z,20.62
2022-08-26T06:50:20.633Z,20.67
2022-08-26T06:52:48.049Z,20.75
2022-08-26T06:55:15.447Z,20.83
2022-08-26T06:57:43.015Z,20.86
2022-08-26T07:00:11.540Z,20.94
2022-08-26T07:02:39.963Z,21.03
2022-08-26T07:05:07.450Z,21.09
2022-08-26T07:07:53.225Z,21.06
2022-08-26T07:10:49.136Z,21.18
2022-08-26T07:13:34.150Z,21.30
2022-08-26T07:16:07.666Z,21.37
2022-08-26T07:18:45.025Z,21.40
2022-08-26T07:21:19.806Z,21.49
2022-08-26T07:23:50.105Z,21.57
2022-08-26T07:26:26.264Z,21.69
2022-08-26T07:29:00.035Z,21.77
2022-08-26T07:31:47.449Z,21.80
2022-08-26T07:34:26.550Z,21.81
2022-08-26T07:36:59.847Z,22.00
2022-08-26T07:39:34.219Z,22.30
2022-08-26T07:42:13.621Z,22.44
2022-08-26T07:44:43.963Z,22.47
2022-08-26T07:47:25.468Z,22.63
2022-08-26T07:49:56.824Z,22.82
2022-08-26T07:52:44.784Z,22.93
2022-08-26T07:56:03.580Z,23.12
2022-08-26T07:58:45.748Z,23.30
2022-08-26T08:01:33.105Z,23.33
2022-08-26T08:04:05.810Z,23.35
2022-08-26T08:07:00.918Z,23.29
2022-08-26T08:09:37.387Z,23.39
2022-08-26T08:12:21.421Z,23.44
2022-08-26T08:15:09.119Z,23.44
2022-08-26T08:17:39.909Z,23.40
2022-08-26T08:20:14.785Z,23.44
2022-08-26T08:23:04.153Z,23.60
2022-08-26T08:25:43.897Z,23.67
2022-08-26T08:28:17.809Z,23.86
2022-08-26T08:30:50.493Z,24.06
2022-08-26T08:33:23.880Z,24.10
2022-08-26T08:35:57.068Z,24.12
2022-08-26T08:38:25.103Z,24.20
2022-08-26T08:40:59.049Z,24.31
2022-08-26T08:43:27.232Z,24.41
2022-08-26T08:46:16.885Z,24.61
2022-08-26T08:49:07.923Z,24.57
2022-08-26T08:52:12.519Z,24.49
2022-08-26T08:54:40.011Z,24.42
2022-08-26T08:57:28.626Z,24.35
2022-08-26T09:00:11.155Z,24.48
2022-08-26T09:02:53.103Z,24.64
2022-08-26T09:05:39.878Z,24.87
2022-08-26T09:08:19.723Z,25.06
2022-08-26T09:10:53.989Z,25.16
2022-08-26T09:13:27.375Z,25.29
2022-08-26T09:16:10.066Z,25.40
2022-08-26T09:19:14.382Z,25.44
2022-08-26T09:22:06.999Z,25.40
2022-08-26T09:24:41.756Z,25.52
2022-08-26T09:27:44.001Z,25.66
2022-08-26T09:30:23.163Z,25.80
2022-08-26T09:33:10.365Z,26.03
2022-08-26T09:35:46.979Z,26.43
2022-08-26T09:38:28.028Z,26.45
2022-08-26T09:41:05.272Z,26.52
2022-08-26T09:43:41.453Z,26.47
2022-08-26T09:46:36.335Z,26.30
2022-08-26T09:49:46.424Z,26.29
2022-08-26T09:52:35.326Z,26.46
2022-08-26T09:55:26.888Z,26.62
2022-08-26T09:57:55.508Z,26.63
2022-08-26T10:00:27.421Z,26.76
2022-08-26T10:03:08.142Z,26.94
2022-08-26T10:05:43.235Z,27.05
2022-08-26T10:08:23.152Z,27.24
2022-08-26T10:10:53.104Z,27.44
2022-08-26T10:13:29.542Z,27.34
2022-08-26T10:16:08.179Z,27.26
2022-08-26T10:19:05.839Z,27.46
2022-08-26T10:21:59.904Z,27.53
2022-08-26T10:24:37.451Z,27.51
2022-08-26T10:27:27.558Z,27.67
2022-08-26T10:30:18.362Z,27.69
2022-08-26T10:33:09.737Z,27.91
2022-08-26T10:36:00.576Z,27.87
2022-08-26T10:38:51.020Z,28.21
2022-08-26T10:41:41.400Z,28.77
2022-08-26T10:44:14.841Z,29.11
2022-08-26T10:47:06.273Z,29.10
2022-08-26T10:49:42.412Z,28.98
2022-08-26T10:52:48.607Z,28.99
2022-08-26T10:55:44.130Z,29.06
2022-08-26T10:58:44.764Z,29.14
2022-08-26T11:01:41.269Z,29.37
2022-08-26T11:05:10.772Z,29.24
2022-08-26T11:07:45.903Z,29.24
2022-08-26T11:10:16.164Z,29.55
2022-08-26T11:12:44.899Z,29.66
2022-08-26T11:15:33.540Z,29.55
2022-08-26T11:18:08.424Z,29.69
2022-08-26T11:20:42.458Z,29.72
2022-08-26T11:23:21.970Z,29.55
2022-08-26T11:26:01.133Z,29.47
2022-08-26T11:28:36.012Z,29.46
2022-08-26T11:31:07.124Z,29.29
2022-08-26T11:33:51.007Z,29.17
2022-08-26T11:36:37.211Z,29.16
2022-08-26T11:39:19.903Z,29.10
2022-08-26T11:41:52.868Z,29.40
2022-08-26T11:44:28.377Z,29.64
2022-08-26T11:47:02.776Z,29.69
2022-08-26T11:49:32.463Z,29.58
2022-08-26T11:52:21.947Z,29.77
2022-08-26T11:55:16.243Z,30.20
2022-08-26T11:57:51.064Z,30.40
2022-08-26T12:00:27.048Z,30.36
2022-08-26T12:02:55.147Z,30.29
2022-08-26T12:05:29.572Z,30.48
2022-08-26T12:08:08.731Z,30.67
2022-08-26T12:10:36.740Z,30.64
2022-08-26T12:13:05.844Z,30.66
2022-08-26T12:15:35.300Z,30.79
2022-08-26T12:18:28.977Z,30.86
2022-08-26T12:21:10.504Z,30.90
2022-08-26T12:23:46.894Z,30.91
2022-08-26T12:26:37.598Z,30.67
2022-08-26T12:29:09.429Z,30.49
2022-08-26T12:31:47.429Z,30.52
2022-08-26T12:34:18.059Z,30.83
2022-08-26T12:36:53.625Z,30.98
2022-08-26T12:39:36.608Z,31.14
2022-08-26T12:42:21.295Z,31.39
2022-08-26T12:45:06.395Z,31.38
2022-08-26T12:47:44.009Z,31.20
2022-08-26T12:50:32.810Z,31.10
2022-08-26T12:53:05.201Z,31.25
2022-08-26T12:55:42.470Z,31.29
2022-08-26T12:58:21.152Z,31.09
2022-08-26T13:01:04.644Z,30.80
2022-08-26T13:03:44.368Z,30.72
2022-08-26T13:06:33.718Z,30.56
2022-08-26T13:09:24.730Z,30.23
2022-08-26T13:12:07.975Z,30.13
2022-08-26T13:14:54.599Z,30.32
2022-08-26T13:17:37.726Z,30.15
2022-08-26T13:20:12.989Z,29.76
2022-08-26T13:22:44.800Z,29.72
2022-08-26T13:25:30.100Z,29.91
2022-08-26T13:28:08.000Z,29.98
2022-08-26T13:30:51.433Z,30.06
2022-08-26T13:33:28.466Z,30.21
2022-08-26T13:36:12.043Z,30.19
2022-08-26T13:38:52.085Z,30.24
2022-08-26T13:41:28.927Z,30.18
2022-08-26T13:44:06.542Z,30.27
2022-08-26T13:46:43.018Z,30.43
2022-08-26T13:49:19.601Z,30.59
2022-08-26T13:51:59.025Z,30.72
2022-08-26T13:54:35.957Z,30.79
2022-08-26T13:57:16.012Z,30.79
2022-08-26T13:59:48.500Z,30.39
2022-08-26T14:02:24.658Z,30.23
2022-08-26T14:04:58.202Z,30.32
2022-08-26T14:07:33.133Z,30.34
2022-08-26T14:10:04.383Z,30.47
2022-08-26T14:12:44.660Z,30.60
2022-08-26T14:15:27.505Z,30.59
2022-08-26T14:18:15.636Z,30.65
2022-08-26T14:21:02.223Z,30.55
2022-08-26T14:23:38.591Z,30.38
2022-08-26T14:26:08.072Z,30.18
2022-08-26T14:28:38.601Z,30.13
2022-08-26T14:31:16.716Z,30.18
2022-08-26T14:34:30.040Z,30.26
2022-08-26T14:37:07.375Z,30.35
2022-08-26T14:39:50.627Z,30.45
2022-08-26T14:42:27.705Z,30.43
2022-08-26T14:45:28.016Z,30.22
2022-08-26T14:48:20.281Z,30.07
2022-08-26T14:51:11.115Z,30.01
2022-08-26T14:54:17.472Z,30.02
2022-08-26T14:56:53.706Z,30.00
2022-08-26T14:59:35.578Z,29.95
2022-08-26T15:02:22.225Z,29.94
2022-08-26T15:05:15.757Z,29.86
2022-08-26T15:07:50.746Z,29.80
2022-08-26T15:10:26.714Z,29.72
2022-08-26T15:13:00.040Z,29.62
2022-08-26T15:16:02.827Z,29.56
2022-08-26T15:18:37.301Z,29.49
2022-08-26T15:21:11.668Z,29.42
2022-08-26T15:23:41.712Z,29.35
2022-08-26T15:26:29.514Z,29.32
2022-08-26T15:28:59.860Z,29.32
2022-08-26T15:31:36.243Z,29.34
2022-08-26T15:34:12.096Z,29.34
2022-08-26T15:36:45.892Z,29.29
2022-08-26T15:39:21.504Z,29.25
2022-08-26T15:42:01.443Z,29.22
2022-08-26T15:44:46.863Z,29.20
2022-08-26T15:47:55.923Z,29.13
2022-08-26T15:50:22.241Z,29.09
2022-08-26T15:52:53.367Z,29.08
2022-08-26T15:55:23.008Z,29.06
2022-08-26T15:57:53.980Z,29.07
2022-08-26T16:00:22.514Z,29.10
2022-08-26T16:02:54.794Z,29.09
2022-08-26T16:05:53.423Z,29.08
2022-08-26T16:08:39.031Z,29.01
2022-08-26T16:11:13.050Z,28.95
2022-08-26T16:13:51.101Z,28.87
2022-08-26T16:16:26.821Z,28.79
2022-08-26T16:19:09.213Z,28.70
2022-08-26T16:21:41.840Z,28.59
2022-08-26T16:24:33.866Z,28.48
2022-08-26T16:27:08.159Z,28.34
2022-08-26T16:29:45.407Z,28.28
2022-08-26T16:32:12.201Z,28.20
2022-08-26T16:34:46.928Z,28.11
2022-08-26T16:37:23.049Z,28.03
2022-08-26T16:40:22.475Z,27.96
2022-08-26T16:42:55.204Z,27.86
2022-08-26T16:45:27.179Z,27.78
2022-08-26T16:48:08.362Z,27.67
2022-08-26T16:50:41.852Z,27.52
2022-08-26T16:53:21.805Z,27.34
2022-08-26T16:55:51.600Z,27.11
2022-08-26T16:58:21.987Z,26.87
2022-08-26T17:00:49.245Z,26.64
2022-08-26T17:03:25.023Z,26.39
2022-08-26T17:05:52.106Z,26.21
2022-08-26T17:08:27.461Z,26.14
2022-08-26T17:11:00.629Z,26.10
2022-08-26T17:13:35.048Z,26.07
2022-08-26T17:16:06.906Z,26.01
2022-08-26T17:18:34.586Z,25.93
2022-08-26T17:21:11.411Z,25.87
2022-08-26T17:23:40.999Z,25.77
2022-08-26T17:26:08.779Z,25.61
2022-08-26T17:28:36.089Z,25.42
2022-08-26T17:31:05.082Z,25.22
2022-08-26T17:33:46.697Z,25.04
2022-08-26T17:36:20.123Z,24.86
2022-08-26T17:38:48.346Z,24.70
2022-08-26T17:41:16.903Z,24.62
2022-08-26T17:43:44.157Z,24.60
2022-08-26T17:46:17.142Z,24.58
2022-08-26T17:48:47.941Z,24.56
2022-08-26T17:51:18.692Z,24.56
2022-08-26T17:53:47.921Z,24.57
2022-08-26T17:56:35.422Z,24.56
2022-08-26T17:59:37.066Z,24.52
2022-08-26T18:02:05.882Z,24.60
2022-08-26T18:04:43.744Z,24.62
2022-08-26T18:07:15.322Z,24.57
2022-08-26T18:10:00.900Z,24.51
2022-08-26T18:12:28.803Z,24.46
2022-08-26T18:15:04.875Z,24.38
2022-08-26T18:17:55.743Z,24.23
2022-08-26T18:20:34.045Z,24.14
2022-08-26T18:23:01.213Z,24.08
2022-08-26T18:25:38.702Z,23.99
2022-08-26T18:28:09.408Z,23.91
2022-08-26T18:30:36.841Z,23.83
2022-08-26T18:33:04.060Z,23.80
2022-08-26T18:35:31.965Z,23.73
2022-08-26T18:38:01.413Z,23.74
2022-08-26T18:40:43.609Z,23.71
2022-08-26T18:43:45.165Z,23.57
2022-08-26T18:46:13.485Z,23.41
2022-08-26T18:48:50.842Z,23.30
2022-08-26T18:51:26.384Z,23.17
2022-08-26T18:53:56.059Z,23.04
2022-08-26T18:56:23.269Z,22.93
2022-08-26T18:58:54.188Z,22.87
2022-08-26T19:01:25.407Z,22.83
2022-08-26T19:03:56.160Z,22.79
2022-08-26T19:06:25.190Z,22.76
2022-08-26T19:08:53.337Z,22.69
2022-08-26T19:11:31.642Z,22.66
2022-08-26T19:14:08.672Z,22.65
2022-08-26T19:16:39.327Z,22.62
2022-08-26T19:19:06.970Z,22.59
2022-08-26T19:21:38.062Z,22.57
2022-08-26T19:24:15.275Z,22.53
2022-08-26T19:26:49.051Z,22.48
2022-08-26T19:29:22.534Z,22.45
2022-08-26T19:31:53.090Z,22.46
2022-08-26T19:34:21.053Z,22.46
2022-08-26T19:36:49.284Z,22.45
2022-08-26T19:39:16.746Z,22.45
2022-08-26T19:41:44.022Z,22.37
2022-08-26T19:44:34.698Z,22.30
2022-08-26T19:47:03.295Z,22.25
2022-08-26T19:49:31.484Z,22.19
2022-08-26T19:51:59.179Z,22.15
2022-08-26T19:54:26.717Z,22.11
2022-08-26T19:56:54.208Z,22.08
2022-08-26T19:59:23.935Z,22.03
2022-08-26T20:02:00.617Z,21.98
2022-08-26T20:04:31.492Z,21.95
2022-08-26T20:07:20.508Z,21.95
2022-08-26T20:09:48.901Z,21.93
2022-08-26T20:12:19.003Z,21.93
2022-08-26T20:14:53.620Z,21.95
2022-08-26T20:17:21.715Z,21.98
2022-08-26T20:20:26.922Z,22.01
2022-08-26T20:23:04.848Z,22.02
2022-08-26T20:25:33.980Z,22.02
2022-08-26T20:28:04.952Z,22.01
2022-08-26T20:30:35.000Z,21.95
2022-08-26T20:33:02.393Z,21.85
2022-08-26T20:35:29.620Z,21.81
2022-08-26T20:38:00.135Z,21.74
2022-08-26T20:40:50.398Z,21.67
2022-08-26T20:43:26.781Z,21.61
2022-08-26T20:45:54.075Z,21.55
2022-08-26T20:48:24.363Z,21.51
2022-08-26T20:51:07.659Z,21.52
2022-08-26T20:53:35.426Z,21.52
2022-08-26T20:56:24.597Z,21.51
2022-08-26T20:59:02.683Z,21.51
2022-08-26T21:01:34.238Z,21.50
2022-08-26T21:04:08.226Z,21.49
2022-08-26T21:06:36.206Z,21.48
2022-08-26T21:09:14.701Z,21.46
2022-08-26T21:11:52.084Z,21.44
2022-08-26T21:14:20.271Z,21.43
2022-08-26T21:16:48.071Z,21.40
2022-08-26T21:19:18.034Z,21.33
2022-08-26T21:21:56.381Z,21.26
2022-08-26T21:24:26.723Z,21.20
2022-08-26T21:26:56.988Z,21.20
2022-08-26T21:29:34.575Z,21.18
2022-08-26T21:32:08.153Z,21.12
2022-08-26T21:35:26.269Z,21.07
2022-08-26T21:38:36.036Z,20.98
2022-08-26T21:42:20.786Z,20.89
2022-08-26T21:45:25.805Z,20.78
2022-08-26T21:48:39.690Z,20.72
2022-08-26T21:56:02.215Z,20.60
2022-08-26T21:58:58.292Z,20.60
2022-08-26T22:01:51.802Z,20.52
2022-08-26T22:05:11.200Z,20.48
2022-08-26T22:07:49.687Z,20.35
2022-08-26T22:10:59.890Z,20.29
2022-08-26T22:17:00.083Z,20.22
2022-08-26T22:20:33.711Z,20.21
2022-08-26T22:23:08.196Z,20.20
2022-08-26T22:25:44.279Z,20.19
2022-08-26T22:28:16.677Z,20.19
2022-08-26T22:30:45.390Z,20.20
2022-08-26T22:33:27.342Z,20.20
2022-08-26T22:36:14.316Z,20.18
2022-08-26T22:38:51.388Z,20.15
2022-08-26T22:41:20.137Z,20.12
2022-08-26T22:43:47.983Z,20.07
2022-08-26T22:46:38.535Z,20.04
2022-08-26T22:49:24.603Z,20.03
2022-08-26T22:52:30.473Z,20.03
2022-08-26T22:55:18.877Z,19.98
2022-08-26T22:57:59.162Z,20.01
2022-08-26T23:00:32.296Z,20.09
2022-08-26T23:03:37.406Z,20.14
2022-08-26T23:06:24.907Z,20.17
2022-08-26T23:09:12.899Z,20.15
2022-08-26T23:11:50.254Z,20.11
2022-08-26T23:14:39.538Z,20.06
2022-08-26T23:17:14.124Z,20.01
2022-08-26T23:19:45.512Z,19.98
2022-08-26T23:22:30.998Z,19.96
2022-08-26T23:25:12.647Z,19.92
2022-08-26T23:27:46.147Z,19.88
2022-08-26T23:30:26.166Z,19.82
2022-08-26T23:32:54.337Z,19.73
2022-08-26T23:35:24.514Z,19.68
2022-08-26T23:37:54.500Z,19.64
2022-08-26T23:40:36.410Z,19.60
2022-08-26T23:43:30.228Z,19.56
2022-08-26T23:46:03.354Z,19.53
2022-08-26T23:48:43.703Z,19.50
2022-08-26T23:51:31.531Z,19.49
2022-08-26T23:53:59.065Z,19.45
2022-08-26T23:56:27.266Z,19.38
2022-08-26T23:58:57.937Z,19.35
